Time;durP1;ratioP1;P1;durP2;ratioP2;P2;SDS_P1;SDS_P2;PMS_P1;PMS_P2;Temp;Humidity;BMP_temperature;BMP_pressure;BME280_temperature;BME280_humidity;BME280_pressure;Samples;Min_cycle;Max_cycle;Signal;HPM_P1;HPM_P2
2023/01/30 00:01:21;;;;;;;;;43.00;31.25;;;;;6.12;69.76;102370.91;5075661;27;45331;-55
2023/01/30 00:03:47;;;;;;;;;29.50;27.50;;;;;6.08;69.92;102380.78;5076199;27;46345;-53
2023/01/30 00:06:13;;;;;;;;;39.00;31.25;;;;;6.10;70.24;102373.59;5075974;28;45311;-54
2023/01/30 00:08:38;;;;;;;;;33.75;26.25;;;;;6.06;69.11;102376.50;5076284;27;45249;-52
2023/01/30 00:11:05;;;;;;;;;36.25;29.25;;;;;6.04;70.11;102375.72;5076512;27;45316;-52
2023/01/30 00:13:32;;;;;;;;;39.50;30.00;;;;;6.06;69.77;102376.50;5076090;27;46164;-55
2023/01/30 00:15:57;;;;;;;;;49.50;34.75;;;;;5.97;70.22;102359.31;5076094;27;45313;-53
2023/01/30 00:18:22;;;;;;;;;48.75;37.00;;;;;6.09;69.95;102365.78;5075796;27;45548;-55
2023/01/30 00:20:48;;;;;;;;;36.50;29.00;;;;;6.12;69.56;102363.84;5076347;27;45434;-54
2023/01/30 00:23:13;;;;;;;;;40.00;32.50;;;;;6.14;69.54;102359.31;5075894;27;50239;-53
2023/01/30 00:25:38;;;;;;;;;41.00;31.75;;;;;6.13;69.05;102356.75;5079138;27;45311;-50
2023/01/30 00:28:04;;;;;;;;;38.75;34.25;;;;;6.14;69.72;102348.75;5079415;27;45498;-52
2023/01/30 00:30:29;;;;;;;;;31.25;28.75;;;;;6.17;69.42;102347.75;5079635;28;45370;-54
2023/01/30 00:32:57;;;;;;;;;32.00;30.75;;;;;6.16;69.45;102349.53;5078956;27;46012;-53
2023/01/30 00:35:27;;;;;;;;;37.25;27.75;;;;;6.17;69.58;102347.75;5079238;27;45415;-56
2023/01/30 00:37:55;;;;;;;;;26.25;18.50;;;;;6.14;69.10;102332.88;5077143;28;45371;-55
2023/01/30 00:40:20;;;;;;;;;43.50;33.50;;;;;6.10;69.76;102330.47;5079298;28;45317;-53
2023/01/30 00:48:13;;;;;;;;;40.50;31.50;;;;;6.07;69.68;102330.63;5078816;28;45431;-55
2023/01/30 00:50:41;;;;;;;;;30.75;28.50;;;;;6.01;69.39;102318.59;5079282;28;45293;-59
2023/01/30 00:53:12;;;;;;;;;36.75;29.75;;;;;6.02;69.69;102317.66;5079130;27;46118;-52
2023/01/30 00:55:37;;;;;;;;;41.75;28.75;;;;;6.02;69.41;102319.47;5078943;27;45257;-54
2023/01/30 00:58:03;;;;;;;;;45.00;34.00;;;;;5.95;69.87;102311.00;5079024;27;45423;-52
2023/01/30 01:00:28;;;;;;;;;38.50;30.75;;;;;5.98;69.74;102314.34;5079025;27;45285;-58
2023/01/30 01:02:54;;;;;;;;;36.75;25.75;;;;;5.98;69.58;102303.78;5078642;28;46208;-55
2023/01/30 01:05:19;;;;;;;;;44.25;29.75;;;;;5.94;70.10;102291.66;5078668;27;45355;-54
2023/01/30 01:07:44;;;;;;;;;42.25;31.00;;;;;5.92;69.72;102292.66;5077699;28;45454;-56
2023/01/30 01:10:15;;;;;;;;;34.50;30.75;;;;;5.87;69.77;102305.22;5079356;27;45313;-55
2023/01/30 01:12:43;;;;;;;;;43.75;31.25;;;;;5.92;70.37;102301.44;5076951;27;45447;-55
2023/01/30 01:15:10;;;;;;;;;33.25;27.75;;;;;5.93;69.76;102302.28;5078438;27;45517;-54
2023/01/30 01:17:36;;;;;;;;;44.00;29.50;;;;;5.86;69.82;102291.19;5078976;27;45363;-55
2023/01/30 01:20:02;;;;;;;;;42.25;31.25;;;;;5.83;69.86;102274.63;5078887;27;46174;-57
2023/01/30 01:22:28;;;;;;;;;31.50;28.75;;;;;5.89;69.76;102287.50;5078565;27;46411;-54
2023/01/30 01:24:53;;;;;;;;;33.50;30.25;;;;;5.89;70.14;102275.16;5078489;27;45414;-55
2023/01/30 01:27:18;;;;;;;;;32.00;25.50;;;;;5.86;69.72;102272.69;5077228;28;45441;-54
2023/01/30 01:29:44;;;;;;;;;7.50;7.50;;;;;5.84;70.34;102269.25;5078856;27;45387;-55
2023/01/30 01:32:09;;;;;;;;;47.25;31.00;;;;;5.85;69.60;102278.03;5078337;27;45260;-54
2023/01/30 01:34:35;;;;;;;;;45.00;32.25;;;;;5.84;70.17;102265.75;5078093;28;45363;-54
2023/01/30 01:37:00;;;;;;;;;10.25;2.00;;;;;5.86;70.29;102261.28;5077550;27;45224;-51
2023/01/30 01:41:00;;;;;;;;;29.75;25.50;;;;;5.89;70.11;102264.59;5076455;28;45292;-55
2023/01/30 01:42:10;;;;;;;;;45.75;35.25;;;;;5.90;70.01;102261.03;5077634;28;45980;-55
2023/01/30 01:45:01;;;;;;;;;36.75;30.75;;;;;5.91;69.90;102265.38;5078300;28;45238;-54
2023/01/30 01:47:27;;;;;;;;;38.75;30.00;;;;;5.95;69.76;102268.75;5078341;27;45416;-55
2023/01/30 01:49:53;;;;;;;;;33.75;24.25;;;;;5.95;69.76;102260.81;5078204;27;45306;-52
2023/01/30 01:52:20;;;;;;;;;36.50;30.00;;;;;5.95;69.56;102256.38;5078410;27;45235;-54
2023/01/30 01:54:53;;;;;;;;;32.25;27.50;;;;;5.97;69.98;102262.44;5078689;28;45352;-54
2023/01/30 01:57:29;;;;;;;;;35.00;28.50;;;;;6.00;69.83;102258.78;5078352;27;45446;-55
2023/01/30 02:00:00;;;;;;;;;30.50;25.50;;;;;6.03;69.20;102261.28;5078546;27;45304;-53
2023/01/30 02:02:26;;;;;;;;;35.50;29.75;;;;;6.03;69.39;102258.63;5078277;27;46048;-56
2023/01/30 02:05:01;;;;;;;;;36.50;30.00;;;;;6.01;69.70;102260.50;5078284;27;45412;-55
2023/01/30 02:07:38;;;;;;;;;40.00;29.25;;;;;5.93;69.31;102239.75;5076105;27;45368;-54
2023/01/30 02:10:07;;;;;;;;;36.00;30.00;;;;;6.04;69.30;102255.06;5078003;27;45292;-55
2023/01/30 02:12:32;;;;;;;;;35.75;26.00;;;;;6.03;69.50;102256.00;5077609;27;47049;-54
2023/01/30 02:14:59;;;;;;;;;36.25;30.75;;;;;6.07;69.33;102256.66;5076410;28;45391;-54
2023/01/30 02:17:25;;;;;;;;;35.50;24.25;;;;;6.07;69.76;102264.59;5078105;27;45500;-54
2023/01/30 02:20:15;;;;;;;;;34.75;27.50;;;;;6.06;69.32;102255.81;5076684;28;45288;-54
2023/01/30 02:22:56;;;;;;;;;45.25;32.50;;;;;6.07;69.46;102256.66;5077446;27;46254;-58
2023/01/30 02:25:50;;;;;;;;;39.25;33.25;;;;;6.09;68.88;102252.16;5077484;28;45390;-52
2023/01/30 02:28:45;;;;;;;;;36.00;28.25;;;;;6.11;69.14;102239.72;5077651;27;45434;-54
2023/01/30 02:31:24;;;;;;;;;34.25;28.50;;;;;6.08;69.08;102238.13;5077969;27;45399;-55
2023/01/30 02:33:55;;;;;;;;;52.50;31.75;;;;;6.06;69.20;102245.25;5077595;27;46194;-53
2023/01/30 02:36:28;;;;;;;;;30.25;29.25;;;;;6.06;68.93;102247.88;5077282;28;45388;-53
2023/01/30 02:39:08;;;;;;;;;38.50;23.50;;;;;6.08;68.93;102246.03;5077287;27;45315;-55
2023/01/30 02:41:52;;;;;;;;;38.75;28.00;;;;;6.10;68.83;102235.38;5077690;28;45761;-55
2023/01/30 02:44:49;;;;;;;;;30.75;25.50;;;;;6.02;67.94;102227.84;5077345;27;47369;-55
2023/01/30 02:47:31;;;;;;;;;35.25;31.50;;;;;6.07;69.06;102244.34;5077042;27;45334;-59
2023/01/30 02:50:05;;;;;;;;;36.25;23.75;;;;;6.08;68.90;102237.25;5077315;27;45330;-55
2023/01/30 02:52:33;;;;;;;;;37.75;31.25;;;;;6.09;68.76;102239.81;5077628;27;45521;-54
2023/01/30 02:54:58;;;;;;;;;30.00;25.00;;;;;6.07;68.63;102240.81;5076787;28;45516;-52
2023/01/30 02:57:26;;;;;;;;;41.25;30.50;;;;;6.13;68.76;102251.94;5076792;28;47092;-51
2023/01/30 02:59:58;;;;;;;;;28.75;22.50;;;;;6.14;68.80;102242.19;5077174;27;45384;-54
2023/01/30 03:03:09;;;;;;;;;32.50;24.50;;;;;6.14;68.52;102242.19;5077053;27;45419;-52
2023/01/30 03:05:47;;;;;;;;;39.00;27.25;;;;;6.15;68.55;102244.78;5076646;27;47203;-54
2023/01/30 03:08:24;;;;;;;;;34.50;26.75;;;;;6.16;68.31;102254.41;5076757;27;45462;-54
2023/01/30 03:11:07;;;;;;;;;35.75;24.75;;;;;6.18;68.39;102252.53;5076963;27;45280;-51
2023/01/30 03:13:50;;;;;;;;;31.00;24.75;;;;;6.17;68.18;102247.34;5077279;27;45443;-55
2023/01/30 03:16:32;;;;;;;;;31.50;25.00;;;;;6.14;68.23;102243.06;5076500;28;47337;-52
2023/01/30 03:19:00;;;;;;;;;32.00;26.25;;;;;6.06;69.04;102236.47;5076743;27;45362;-53
2023/01/30 03:21:25;;;;;;;;;33.00;28.00;;;;;6.11;68.42;102245.88;5076669;27;45448;-54
2023/01/30 03:23:51;;;;;;;;;37.25;28.25;;;;;6.13;68.62;102251.94;5075459;28;45470;-55
2023/01/30 03:26:20;;;;;;;;;23.75;23.75;;;;;6.16;68.66;102254.41;5076786;28;46139;-54
2023/01/30 03:28:48;;;;;;;;;28.75;24.50;;;;;6.22;69.07;102251.44;5076661;28;45205;-54
2023/01/30 03:31:13;;;;;;;;;35.25;28.50;;;;;6.23;69.14;102250.50;5076784;27;45395;-54
2023/01/30 03:33:39;;;;;;;;;35.00;26.50;;;;;6.22;68.60;102243.50;5076842;28;45261;-51
2023/01/30 03:36:04;;;;;;;;;31.75;24.75;;;;;6.24;69.19;102246.09;5076411;27;46997;-54
2023/01/30 03:38:30;;;;;;;;;30.00;25.75;;;;;6.25;69.43;102245.16;5076420;27;45252;-53
2023/01/30 03:40:55;;;;;;;;;32.50;28.75;;;;;6.25;69.73;102239.84;5076521;27;45400;-55
2023/01/30 03:43:21;;;;;;;;;16.25;11.25;;;;;6.22;69.32;102232.94;5076797;28;45507;-53
2023/01/30 03:45:46;;;;;;;;;33.75;25.75;;;;;6.13;70.37;102222.88;5076374;28;46252;-54
2023/01/30 03:48:11;;;;;;;;;29.25;23.00;;;;;6.21;70.12;102236.53;5075040;28;45523;-54
2023/01/30 03:50:37;;;;;;;;;28.25;24.75;;;;;6.22;70.01;102238.22;5075467;28;45473;-54
2023/01/30 03:53:02;;;;;;;;;31.00;26.00;;;;;6.23;69.85;102233.78;5076388;28;45453;-54
2023/01/30 03:55:27;;;;;;;;;36.00;24.75;;;;;6.19;70.61;102225.19;5076287;28;45284;-53
2023/01/30 03:57:56;;;;;;;;;34.50;24.75;;;;;6.19;70.37;102221.66;5076273;28;45329;-53
2023/01/30 04:00:22;;;;;;;;;26.50;25.50;;;;;6.18;70.70;102226.09;5079385;28;45273;-50
2023/01/30 04:02:47;;;;;;;;;30.00;26.75;;;;;6.18;71.21;102218.19;5079987;28;45333;-53
2023/01/30 04:05:12;;;;;;;;;28.50;24.50;;;;;6.13;70.94;102206.16;5079401;28;46189;-51
2023/01/30 04:07:38;;;;;;;;;34.00;24.25;;;;;6.17;70.73;102213.84;5078877;28;45443;-54
2023/01/30 04:10:03;;;;;;;;;27.50;24.75;;;;;6.19;70.56;102209.34;5079955;28;45442;-52
2023/01/30 04:12:29;;;;;;;;;25.75;23.50;;;;;6.21;70.45;102206.59;5079169;28;45434;-52
2023/01/30 04:14:54;;;;;;;;;34.25;26.00;;;;;6.10;70.98;102193.97;5079466;27;45394;-52
2023/01/30 04:17:19;;;;;;;;;29.25;25.75;;;;;6.12;71.11;102210.59;5079480;27;45408;-53
2023/01/30 04:19:45;;;;;;;;;28.00;23.00;;;;;6.10;71.03;102206.31;5078705;27;45368;-52
2023/01/30 04:22:10;;;;;;;;;25.25;22.75;;;;;6.09;70.82;102221.31;5079436;28;45382;-52
2023/01/30 04:24:35;;;;;;;;;28.50;27.75;;;;;6.10;71.31;102214.25;5079428;27;45453;-52
2023/01/30 04:27:00;;;;;;;;;33.75;24.50;;;;;6.11;71.02;102211.53;5079326;27;45392;-53
2023/01/30 04:29:26;;;;;;;;;33.75;21.00;;;;;6.12;70.79;102207.94;5079584;27;45377;-54
2023/01/30 04:31:51;;;;;;;;;35.00;23.50;;;;;6.14;70.87;102206.06;5079495;28;45318;-55
2023/01/30 04:34:16;;;;;;;;;27.50;24.25;;;;;6.17;71.27;102205.91;5079289;27;45286;-54
2023/01/30 04:36:42;;;;;;;;;30.00;24.75;;;;;6.18;71.04;102194.41;5078962;28;45269;-55
2023/01/30 04:39:07;;;;;;;;;32.00;26.50;;;;;6.14;71.83;102192.00;5079296;27;45568;-54
2023/01/30 04:41:32;;;;;;;;;35.00;26.25;;;;;6.12;71.50;102178.03;5079375;27;45307;-53
2023/01/30 04:43:58;;;;;;;;;37.00;27.75;;;;;6.17;71.85;102190.06;5079351;27;45362;-55
2023/01/30 04:46:23;;;;;;;;;34.25;27.75;;;;;6.08;71.40;102174.72;5061323;28;45364;-55
2023/01/30 04:48:48;;;;;;;;;35.25;29.25;;;;;6.14;71.74;102190.22;5078017;27;45366;-54
2023/01/30 04:51:14;;;;;;;;;28.25;26.00;;;;;6.13;71.36;102195.59;5079420;28;45258;-56
2023/01/30 04:53:39;;;;;;;;;32.25;26.25;;;;;6.11;71.48;102205.38;5078876;28;47082;-53
2023/01/30 04:56:05;;;;;;;;;28.50;22.75;;;;;6.13;71.21;102195.59;5079176;28;45353;-55
2023/01/30 04:58:30;;;;;;;;;39.50;26.50;;;;;6.13;71.61;102203.53;5078951;28;45171;-54
2023/01/30 05:01:14;;;;;;;;;33.50;24.50;;;;;6.13;71.26;102191.16;5078816;27;45305;-52
2023/01/30 05:03:40;;;;;;;;;28.00;26.00;;;;;6.16;71.54;102193.63;5078814;27;45383;-54
2023/01/30 05:06:05;;;;;;;;;32.50;23.00;;;;;6.17;71.56;102192.69;5078556;28;45315;-54
2023/01/30 05:08:31;;;;;;;;;32.50;26.50;;;;;6.20;71.63;102194.34;5078801;28;45324;-54
2023/01/30 05:10:57;;;;;;;;;30.00;21.00;;;;;6.16;71.74;102187.50;5078823;27;45357;-55
2023/01/30 05:13:22;;;;;;;;;34.25;27.75;;;;;6.20;71.81;102192.53;5078743;27;46479;-54
2023/01/30 05:15:47;;;;;;;;;42.25;29.25;;;;;6.22;72.03;102198.56;5077122;28;45437;-53
2023/01/30 05:18:12;;;;;;;;;35.75;31.75;;;;;6.22;71.58;102192.44;5078962;28;46098;-53
2023/01/30 05:20:38;;;;;;;;;37.25;26.00;;;;;6.28;71.59;102199.19;5078730;27;45224;-53
2023/01/30 05:23:03;;;;;;;;;34.75;24.25;;;;;6.27;70.73;102189.56;5078285;27;45422;-55
2023/01/30 05:25:28;;;;;;;;;28.75;24.00;;;;;6.28;71.25;102207.09;5078235;27;48884;-54
2023/01/30 05:27:54;;;;;;;;;28.75;25.50;;;;;6.31;71.85;102201.66;5078456;28;45500;-55
2023/01/30 05:30:19;;;;;;;;;31.00;25.00;;;;;6.27;71.41;102193.03;5078737;28;45342;-54
2023/01/30 05:32:45;;;;;;;;;37.25;28.00;;;;;6.25;72.04;102189.66;5078214;27;46099;-53
2023/01/30 05:35:10;;;;;;;;;44.25;26.50;;;;;6.24;71.86;102187.94;5078387;28;45408;-54
2023/01/30 05:37:36;;;;;;;;;39.25;29.50;;;;;6.22;71.65;102179.25;5077820;27;45383;-51
2023/01/30 05:40:02;;;;;;;;;41.25;26.25;;;;;6.22;72.46;102184.53;5078421;28;45428;-55
2023/01/30 05:42:28;;;;;;;;;31.00;26.50;;;;;6.17;71.43;102187.41;5077937;28;46033;-54
2023/01/30 05:44:53;;;;;;;;;42.75;30.00;;;;;6.15;72.85;102181.38;5077894;27;45381;-55
2023/01/30 05:47:18;;;;;;;;;33.50;30.50;;;;;6.17;72.58;102181.28;5078144;28;45357;-53
2023/01/30 05:49:44;;;;;;;;;33.25;23.00;;;;;6.12;72.55;102176.25;5078307;27;45416;-54
2023/01/30 05:52:09;;;;;;;;;24.25;19.50;;;;;6.13;71.65;102177.94;5077785;28;46492;-55
2023/01/30 05:54:34;;;;;;;;;37.25;27.50;;;;;6.09;72.73;102179.03;5078216;28;45459;-54
2023/01/30 05:57:00;;;;;;;;;34.00;27.00;;;;;6.08;72.53;102174.72;5077893;28;45305;-53
2023/01/30 05:59:25;;;;;;;;;33.75;26.25;;;;;6.12;72.88;102181.53;5077873;28;45400;-53
2023/01/30 06:01:50;;;;;;;;;40.25;24.00;;;;;6.14;72.84;102179.66;5077655;27;46110;-55
2023/01/30 06:04:15;;;;;;;;;50.25;30.75;;;;;6.16;73.16;102182.22;5078026;28;46080;-55
2023/01/30 06:06:41;;;;;;;;;30.00;24.00;;;;;6.18;73.37;102175.91;5077775;28;45397;-53
2023/01/30 06:09:08;;;;;;;;;40.25;31.00;;;;;6.20;73.45;102179.31;5078020;28;45337;-52
2023/01/30 06:11:33;;;;;;;;;29.50;25.00;;;;;6.20;73.80;102181.97;5077811;28;45370;-55
2023/01/30 06:13:59;;;;;;;;;39.50;25.25;;;;;6.22;74.33;102168.66;5077477;28;48194;-54
2023/01/30 06:16:24;;;;;;;;;36.00;26.00;;;;;6.22;73.72;102166.88;5078017;28;45323;-55
2023/01/30 06:18:49;;;;;;;;;37.50;30.00;;;;;6.23;74.00;102171.22;5078115;28;45317;-51
2023/01/30 06:21:15;;;;;;;;;22.75;21.75;;;;;6.20;72.75;102158.19;5077448;28;45761;-54
2023/01/30 06:23:41;;;;;;;;;23.50;21.50;;;;;6.18;74.50;102146.84;5077487;28;45368;-54
2023/01/30 06:26:07;;;;;;;;;34.75;28.00;;;;;6.11;74.19;102144.59;5077739;27;45439;-54
2023/01/30 06:28:33;;;;;;;;;29.00;24.00;;;;;6.16;74.12;102138.16;5077757;28;45479;-54
2023/01/30 06:30:58;;;;;;;;;28.75;22.00;;;;;6.15;74.50;102143.50;5077319;27;45242;-54
2023/01/30 06:33:24;;;;;;;;;34.00;27.00;;;;;6.17;74.58;102155.72;5077566;28;45828;-53
2023/01/30 06:35:50;;;;;;;;;25.50;22.50;;;;;6.10;73.89;102148.19;5077651;27;45215;-54
2023/01/30 06:38:16;;;;;;;;;36.75;23.75;;;;;6.22;73.83;102166.88;5077135;28;45488;-53
2023/01/30 06:40:44;;;;;;;;;36.50;24.25;;;;;6.25;74.74;102187.00;5076903;28;46174;-56
2023/01/30 06:43:10;;;;;;;;;20.75;19.25;;;;;6.27;74.41;102194.84;5077001;28;45474;-54
2023/01/30 06:45:35;;;;;;;;;32.25;25.75;;;;;6.29;74.70;102177.97;5077155;28;45373;-52
2023/01/30 06:48:01;;;;;;;;;26.25;20.50;;;;;6.31;74.55;102183.16;5077410;27;45359;-51
2023/01/30 06:50:27;;;;;;;;;27.50;23.25;;;;;6.30;74.41;102190.25;5077002;28;46192;-52
2023/01/30 06:52:54;;;;;;;;;39.25;26.50;;;;;6.26;74.83;102191.34;5076911;27;45384;-54
2023/01/30 06:55:22;;;;;;;;;23.00;22.00;;;;;6.37;74.55;102209.28;5077233;27;45365;-55
2023/01/30 06:57:48;;;;;;;;;28.50;20.75;;;;;6.34;74.87;102207.63;5077239;28;45425;-55
2023/01/30 07:00:18;;;;;;;;;25.75;22.00;;;;;6.42;74.19;102210.72;5076807;28;46220;-52
2023/01/30 07:02:45;;;;;;;;;28.25;22.50;;;;;6.42;74.71;102207.22;5076229;27;45470;-54
2023/01/30 07:05:11;;;;;;;;;28.75;21.00;;;;;6.42;75.25;102199.28;5076803;27;45345;-53
2023/01/30 07:07:37;;;;;;;;;30.50;22.25;;;;;6.45;74.27;102207.91;5076954;28;45444;-51
2023/01/30 07:10:04;;;;;;;;;21.00;19.00;;;;;6.48;74.53;102220.09;5076785;28;47615;-54
2023/01/30 07:12:30;;;;;;;;;27.25;23.00;;;;;6.43;74.78;102219.50;5058517;28;45426;-53
2023/01/30 07:14:55;;;;;;;;;30.50;21.00;;;;;6.46;74.40;102227.28;5077033;27;45358;-54
2023/01/30 07:17:21;;;;;;;;;29.50;22.50;;;;;6.45;75.24;102226.41;5077140;27;45297;-53
2023/01/30 07:19:47;;;;;;;;;27.00;21.25;;;;;6.36;75.20;102215.47;5076853;28;45495;-53
2023/01/30 07:22:14;;;;;;;;;29.00;22.25;;;;;6.42;75.54;102228.38;5074988;27;45378;-54
2023/01/30 07:24:41;;;;;;;;;29.75;23.00;;;;;6.43;74.97;102224.78;5076796;28;45218;-54
2023/01/30 07:27:11;;;;;;;;;24.00;20.25;;;;;6.49;74.80;102225.31;5076861;27;45420;-54
2023/01/30 07:29:37;;;;;;;;;20.75;19.50;;;;;6.47;75.66;102224.53;5076515;28;47295;-57
2023/01/30 07:32:04;;;;;;;;;35.75;23.75;;;;;6.52;75.95;102229.56;5076382;28;45439;-52
2023/01/30 07:34:29;;;;;;;;;35.25;26.00;;;;;6.53;75.53;102244.50;5060184;28;45267;-52
2023/01/30 07:36:54;;;;;;;;;27.25;21.75;;;;;6.53;75.44;102244.50;5080163;27;45278;-52
2023/01/30 07:39:20;;;;;;;;;28.00;21.00;;;;;6.50;75.15;102236.75;5079566;27;53011;-53
2023/01/30 07:41:45;;;;;;;;;25.25;18.25;;;;;6.47;75.75;102228.97;5080142;27;45278;-52
2023/01/30 07:44:11;;;;;;;;;33.00;22.75;;;;;6.60;75.09;102247.66;5080275;28;45531;-53
2023/01/30 07:46:37;;;;;;;;;29.00;22.25;;;;;6.59;76.14;102248.59;5080409;27;45235;-53
2023/01/30 07:49:08;;;;;;;;;25.75;22.25;;;;;6.52;76.10;102228.72;5079644;27;47098;-54
2023/01/30 07:51:33;;;;;;;;;34.00;25.50;;;;;6.62;75.98;102249.28;5080329;27;45473;-52
2023/01/30 07:54:00;;;;;;;;;25.50;22.75;;;;;6.63;76.64;102251.00;5079946;27;45336;-54
2023/01/30 07:56:26;;;;;;;;;31.00;22.75;;;;;6.64;75.99;102236.81;5080271;27;45428;-52
2023/01/30 07:58:53;;;;;;;;;30.25;22.00;;;;;6.68;76.82;102251.59;5079889;27;46230;-53
2023/01/30 08:01:19;;;;;;;;;32.00;27.25;;;;;6.67;77.11;102241.94;5079543;27;45282;-53
2023/01/30 08:03:45;;;;;;;;;28.50;23.25;;;;;6.67;77.06;102241.94;5061741;27;45802;-52
2023/01/30 08:06:12;;;;;;;;;31.50;22.75;;;;;6.69;77.38;102240.06;5079902;27;45376;-54
2023/01/30 08:08:38;;;;;;;;;28.25;23.75;;;;;6.72;77.45;102239.91;5079396;28;46264;-53
2023/01/30 08:11:03;;;;;;;;;26.25;24.25;;;;;6.71;77.64;102247.94;5079742;28;45352;-53
2023/01/30 08:13:29;;;;;;;;;30.50;23.25;;;;;6.71;76.82;102243.50;5080149;27;45380;-53
2023/01/30 08:15:54;;;;;;;;;29.25;25.00;;;;;6.75;77.48;102245.03;5080277;27;45235;-54
2023/01/30 08:18:19;;;;;;;;;33.75;26.00;;;;;6.77;78.03;102241.44;5078437;28;48224;-53
2023/01/30 08:20:45;;;;;;;;;30.25;26.00;;;;;6.79;77.50;102239.56;5079625;27;45449;-51
2023/01/30 08:23:11;;;;;;;;;26.00;21.75;;;;;6.77;77.79;102239.66;5079204;27;45248;-54
2023/01/30 08:25:36;;;;;;;;;26.00;24.25;;;;;6.80;77.66;102242.13;5079732;27;45414;-53
2023/01/30 08:28:03;;;;;;;;;32.25;26.25;;;;;6.80;78.19;102247.41;5079197;27;46053;-53
2023/01/30 08:30:29;;;;;;;;;28.00;23.00;;;;;6.75;78.16;102239.75;5079569;27;45259;-53
2023/01/30 08:32:55;;;;;;;;;28.25;24.50;;;;;6.85;78.19;102258.59;5079397;28;45348;-53
2023/01/30 08:35:20;;;;;;;;;35.00;25.50;;;;;6.89;77.49;102261.91;5079662;27;45333;-54
2023/01/30 08:37:45;;;;;;;;;32.25;23.50;;;;;6.92;77.64;102253.81;5078674;27;49437;-53
2023/01/30 08:40:11;;;;;;;;;36.75;22.75;;;;;6.94;77.75;102259.88;5077953;28;45447;-55
2023/01/30 08:42:36;;;;;;;;;22.00;19.75;;;;;6.96;76.79;102258.00;5077316;28;45424;-53
2023/01/30 08:45:02;;;;;;;;;64.50;48.00;;;;;6.88;77.06;102254.94;5077627;28;45479;-55
2023/01/30 08:47:28;;;;;;;;;34.25;31.25;;;;;6.99;77.25;102265.75;5078012;27;46230;-54
2023/01/30 08:49:53;;;;;;;;;29.75;23.75;;;;;7.02;77.06;102262.09;5078019;28;45507;-54
2023/01/30 08:52:19;;;;;;;;;29.25;25.50;;;;;7.02;77.37;102257.63;5078117;28;45875;-55
2023/01/30 08:54:45;;;;;;;;;32.00;22.50;;;;;7.03;77.94;102261.97;5078133;28;45247;-53
2023/01/30 08:57:12;;;;;;;;;24.00;18.50;;;;;7.04;76.69;102262.84;5077532;27;46189;-54
2023/01/30 08:59:37;;;;;;;;;30.50;25.75;;;;;7.04;77.55;102271.66;5078097;28;45352;-53
2023/01/30 09:02:03;;;;;;;;;23.50;19.50;;;;;7.10;76.94;102283.69;5077540;27;45417;-54
2023/01/30 09:04:29;;;;;;;;;25.25;21.50;;;;;7.12;77.14;102279.13;5077880;28;45388;-53
2023/01/30 09:06:55;;;;;;;;;30.75;22.25;;;;;7.15;76.84;102281.63;5077778;28;46278;-54
2023/01/30 09:09:20;;;;;;;;;24.00;20.50;;;;;7.18;77.59;102287.59;5077084;28;45334;-54
2023/01/30 09:11:47;;;;;;;;;36.50;28.50;;;;;7.11;77.47;102269.50;5077819;28;45351;-52
2023/01/30 09:14:13;;;;;;;;;28.25;20.50;;;;;7.18;76.74;102284.94;5077748;28;45469;-54
2023/01/30 09:16:38;;;;;;;;;28.00;20.00;;;;;7.20;77.40;102277.75;5077533;27;46186;-54
2023/01/30 09:19:04;;;;;;;;;25.75;20.00;;;;;7.24;77.15;102274.00;5077485;28;45466;-54
2023/01/30 09:21:30;;;;;;;;;24.75;20.00;;;;;7.24;76.76;102281.94;5077761;27;45308;-54
2023/01/30 09:23:56;;;;;;;;;23.75;16.25;;;;;7.23;76.70;102277.59;5077800;27;45278;-52
2023/01/30 09:26:22;;;;;;;;;33.75;22.00;;;;;7.29;76.86;102280.81;5077164;27;47017;-54
2023/01/30 09:28:47;;;;;;;;;20.25;16.00;;;;;7.34;76.87;102284.94;5077264;27;45435;-54
2023/01/30 09:31:12;;;;;;;;;25.00;20.25;;;;;7.36;77.35;102290.13;5077630;28;45294;-55
2023/01/30 09:33:38;;;;;;;;;26.00;21.50;;;;;7.38;76.55;102288.25;5077769;28;45367;-54
2023/01/30 09:36:04;;;;;;;;;24.00;19.25;;;;;7.38;76.82;102286.47;5077339;28;45617;-55
2023/01/30 09:38:29;;;;;;;;;24.50;16.50;;;;;7.41;76.79;102288.91;5035794;27;1145460;-55
2023/01/30 09:40:57;;;;;;;;;19.00;15.67;;;;;7.44;77.36;102287.91;5078723;28;45436;-54
2023/01/30 09:43:54;;;;;;;;;18.25;16.25;;;;;7.47;76.54;102285.06;5078881;28;45319;-54
2023/01/30 09:47:02;;;;;;;;;22.00;17.00;;;;;7.49;76.90;102275.22;5078537;27;45396;-53
2023/01/30 09:50:09;;;;;;;;;21.50;17.00;;;;;7.53;77.38;102275.91;5015498;28;45456;-54
2023/01/30 09:52:59;;;;;;;;;22.75;18.25;;;;;7.53;76.98;102274.13;4956695;28;45451;-54
2023/01/30 09:55:31;;;;;;;;;19.25;16.25;;;;;7.56;76.37;102273.94;4956674;28;45740;-54
2023/01/30 09:57:59;;;;;;;;;19.75;13.00;;;;;7.57;76.92;102275.63;4955560;28;45381;-56
2023/01/30 10:00:40;;;;;;;;;23.25;16.50;;;;;7.58;77.55;102274.69;4956288;28;45340;-54
2023/01/30 10:03:15;;;;;;;;;19.25;16.00;;;;;7.54;77.98;102275.81;4956501;28;45455;-53
2023/01/30 10:05:49;;;;;;;;;17.25;12.75;;;;;7.62;77.62;102283.31;4956762;28;45416;-55
2023/01/30 10:08:14;;;;;;;;;23.50;17.50;;;;;7.65;78.05;102283.16;4956182;28;47300;-53
2023/01/30 10:11:13;;;;;;;;;22.25;16.00;;;;;7.65;77.56;102288.44;4956168;28;45258;-54
2023/01/30 10:14:15;;;;;;;;;25.50;17.75;;;;;7.69;77.92;102284.66;4917861;28;45522;-54
2023/01/30 10:17:21;;;;;;;;;21.00;15.00;;;;;7.72;77.47;102287.16;4917961;28;45543;-54
2023/01/30 10:20:20;;;;;;;;;18.50;13.75;;;;;7.74;77.39;102304.63;4917807;28;45347;-53
2023/01/30 10:22:53;;;;;;;;;18.25;13.25;;;;;7.76;77.41;102312.50;4917523;28;45314;-54
2023/01/30 10:25:33;;;;;;;;;21.00;15.00;;;;;7.56;78.10;102273.94;4917917;28;45405;-54
2023/01/30 10:28:05;;;;;;;;;15.50;12.75;;;;;7.82;78.59;102311.28;4945913;28;45685;-54
2023/01/30 10:30:32;;;;;;;;;22.25;15.75;;;;;7.85;78.67;102311.13;4995062;28;46053;-54
2023/01/30 10:33:05;;;;;;;;;21.00;18.25;;;;;7.86;78.42;102308.38;4995160;28;45348;-54
2023/01/30 10:35:38;;;;;;;;;21.00;15.75;;;;;7.88;78.50;102314.44;4995175;28;45324;-53
2023/01/30 10:38:14;;;;;;;;;16.50;15.75;;;;;7.89;76.21;102307.34;4987037;28;45400;-53
2023/01/30 10:40:40;;;;;;;;;20.50;14.00;;;;;7.95;77.19;102313.13;4975061;28;47011;-54
2023/01/30 10:43:40;;;;;;;;;19.75;17.00;;;;;7.96;77.46;102303.38;4975280;28;45376;-52
2023/01/30 10:46:23;;;;;;;;;20.75;15.75;;;;;8.05;77.52;102294.00;4975475;28;45402;-50
2023/01/30 10:48:57;;;;;;;;;17.00;14.25;;;;;8.09;77.60;102283.16;4975795;28;45452;-51
2023/01/30 10:51:46;;;;;;;;;18.75;14.25;;;;;8.14;77.88;102270.47;4975207;28;45371;-55
2023/01/30 10:54:14;;;;;;;;;23.50;17.25;;;;;8.21;77.08;102265.63;5037975;28;45539;-53
2023/01/30 10:56:45;;;;;;;;;25.00;20.00;;;;;8.27;77.78;102269.72;5056783;28;45559;-54
2023/01/30 10:59:21;;;;;;;;;23.50;16.00;;;;;8.35;77.52;102263.00;5057357;28;45421;-55
2023/01/30 11:01:54;;;;;;;;;21.25;15.00;;;;;8.45;76.98;102268.59;5056704;28;46194;-55
2023/01/30 11:04:43;;;;;;;;;20.75;13.00;;;;;8.55;76.15;102275.03;5056851;28;45237;-55
2023/01/30 11:07:11;;;;;;;;;18.25;10.50;;;;;8.51;76.25;102262.91;5056896;28;45365;-53
2023/01/30 11:09:41;;;;;;;;;13.75;11.25;;;;;8.63;76.50;102267.44;5056598;28;45349;-54
2023/01/30 11:12:06;;;;;;;;;16.00;12.00;;;;;8.69;76.30;102271.53;5056456;28;46000;-54
2023/01/30 11:14:55;;;;;;;;;17.75;13.75;;;;;8.68;75.54;102276.00;5056528;28;45447;-55
2023/01/30 11:17:28;;;;;;;;;14.25;11.00;;;;;8.66;75.72;102279.66;5055617;28;45280;-53
2023/01/30 11:20:04;;;;;;;;;12.75;11.00;;;;;8.60;75.94;102278.28;5056668;28;45448;-55
2023/01/30 11:22:33;;;;;;;;;15.75;10.50;;;;;8.51;75.85;102257.59;5056332;28;47106;-55
2023/01/30 11:25:24;;;;;;;;;13.75;13.00;;;;;8.66;75.73;102271.72;5056307;28;45401;-53
2023/01/30 11:27:58;;;;;;;;;19.00;10.00;;;;;8.73;75.92;102257.97;5053472;28;45340;-55
2023/01/30 11:30:28;;;;;;;;;11.75;9.00;;;;;8.86;75.51;102268.66;5056749;28;45332;-55
2023/01/30 11:33:07;;;;;;;;;15.75;12.75;;;;;8.86;75.44;102263.34;5056146;28;45321;-52